createdAt,value
2022-10-23T00:01:34.047Z,100
2022-10-23T00:06:34.088Z,100
2022-10-23T00:11:34.057Z,100
2022-10-23T00:16:34.045Z,100
2022-10-23T00:21:34.020Z,100
2022-10-23T00:26:34.030Z,100
2022-10-23T00:31:34.043Z,100
2022-10-23T00:36:34.014Z,100
2022-10-23T00:41:34.020Z,100
2022-10-23T00:46:34.013Z,100
2022-10-23T00:51:34.000Z,100
2022-10-23T00:56:34.002Z,100
2022-10-23T01:01:34.080Z,100
2022-10-23T01:06:34.003Z,100
2022-10-23T01:11:34.010Z,100
2022-10-23T01:16:34.001Z,100
2022-10-23T01:21:33.973Z,100
2022-10-23T01:26:34.026Z,100
2022-10-23T01:31:34.000Z,100
2022-10-23T01:36:33.977Z,100
2022-10-23T01:41:33.977Z,100
2022-10-23T01:46:33.949Z,100
2022-10-23T01:51:33.972Z,100
2022-10-23T01:56:33.965Z,100
2022-10-23T02:01:34.075Z,100
2022-10-23T02:06:33.944Z,100
2022-10-23T02:11:33.966Z,100
2022-10-23T02:16:33.945Z,100
2022-10-23T02:21:33.919Z,100
2022-10-23T02:26:33.916Z,100
2022-10-23T02:31:33.966Z,100
2022-10-23T02:36:33.930Z,100
2022-10-23T02:41:33.907Z,100
2022-10-23T02:46:33.912Z,100
2022-10-23T02:51:33.906Z,100
2022-10-23T02:56:35.483Z,100
2022-10-23T03:01:34.048Z,100
2022-10-23T03:06:33.898Z,100
2022-10-23T03:11:33.879Z,100
2022-10-23T03:16:33.884Z,100
2022-10-23T03:21:33.890Z,100
2022-10-23T03:26:33.889Z,100
2022-10-23T03:31:33.878Z,100
2022-10-23T03:36:33.868Z,100
2022-10-23T03:41:33.854Z,100
2022-10-23T03:46:33.870Z,100
2022-10-23T03:51:34.028Z,100
2022-10-23T03:56:33.865Z,100
2022-10-23T04:01:33.946Z,100
2022-10-23T04:06:33.844Z,100
2022-10-23T04:11:33.844Z,100
2022-10-23T04:16:33.854Z,100
2022-10-23T04:21:33.824Z,100
2022-10-23T04:26:33.844Z,100
2022-10-23T04:31:33.830Z,100
2022-10-23T04:36:33.885Z,100
2022-10-23T04:41:33.818Z,100
2022-10-23T04:46:33.821Z,100
2022-10-23T04:51:33.856Z,100
2022-10-23T04:56:33.815Z,100
2022-10-23T05:01:33.958Z,100
2022-10-23T05:06:33.838Z,100
2022-10-23T05:11:33.830Z,100
2022-10-23T05:16:33.782Z,100
2022-10-23T05:21:33.781Z,100
2022-10-23T05:31:33.777Z,100
2022-10-23T05:36:33.796Z,100
2022-10-23T05:46:33.767Z,100
2022-10-23T05:51:33.777Z,100
2022-10-23T06:01:33.936Z,100
2022-10-23T06:06:33.747Z,100
2022-10-23T06:16:33.739Z,100
2022-10-23T06:21:33.750Z,100
2022-10-23T06:41:33.718Z,100
2022-10-23T06:46:33.714Z,100
2022-10-23T06:51:33.719Z,100
2022-10-23T06:56:33.716Z,100
2022-10-23T07:01:33.872Z,100
2022-10-23T07:06:33.702Z,100
2022-10-23T07:11:33.716Z,100
2022-10-23T07:16:33.698Z,100
2022-10-23T07:21:33.689Z,100
2022-10-23T07:26:33.692Z,100
2022-10-23T07:31:33.701Z,100
2022-10-23T07:36:33.675Z,100
2022-10-23T07:41:33.695Z,100
2022-10-23T07:46:33.667Z,100
2022-10-23T07:51:33.674Z,100
2022-10-23T07:56:33.643Z,100
2022-10-23T08:01:33.871Z,98.9
2022-10-23T08:06:33.650Z,98.6
2022-10-23T08:11:33.642Z,97.7
2022-10-23T08:16:33.648Z,96.5
2022-10-23T08:21:33.617Z,96.5
2022-10-23T08:26:33.636Z,95.6
2022-10-23T08:31:33.631Z,94.7
2022-10-23T08:36:33.635Z,95.2
2022-10-23T08:41:33.614Z,94.1
2022-10-23T08:46:33.599Z,94
2022-10-23T08:51:33.605Z,92.2
2022-10-23T08:56:33.609Z,91.4
2022-10-23T09:01:33.694Z,89.5
2022-10-23T09:06:33.593Z,87.4
2022-10-23T09:11:33.577Z,85.8
2022-10-23T09:16:33.582Z,86
2022-10-23T09:21:33.573Z,85.8
2022-10-23T09:26:33.562Z,84.4
2022-10-23T09:31:33.558Z,84.4
2022-10-23T09:36:33.553Z,81.7
2022-10-23T09:41:33.543Z,82.5
2022-10-23T09:46:33.515Z,84.3
2022-10-23T09:51:33.532Z,83.9
2022-10-23T09:56:33.530Z,83.4
2022-10-23T10:01:33.676Z,84
2022-10-23T10:06:33.557Z,82.7
2022-10-23T10:21:33.503Z,81.5
2022-10-23T10:26:33.507Z,81.1
2022-10-23T10:31:33.488Z,80.5
2022-10-23T10:36:33.471Z,79.7
2022-10-23T10:41:33.465Z,80.1
2022-10-23T10:46:33.470Z,80.8
2022-10-23T10:51:33.454Z,81.4
2022-10-23T10:56:33.456Z,80.7
2022-10-23T11:01:33.524Z,80.2
2022-10-23T11:06:33.430Z,80.3
2022-10-23T11:11:33.432Z,80.8
2022-10-23T11:16:33.408Z,81.3
2022-10-23T11:21:33.410Z,80.8
2022-10-23T11:26:33.426Z,81.3
2022-10-23T11:31:33.407Z,81.8
2022-10-23T11:36:33.401Z,80.9
2022-10-23T11:41:33.413Z,80.9
2022-10-23T11:46:33.390Z,80.8
2022-10-23T11:51:33.401Z,81.1
2022-10-23T11:56:33.376Z,80.4
2022-10-23T12:01:33.439Z,80
2022-10-23T12:06:33.366Z,80.2
2022-10-23T12:11:33.362Z,79.4
2022-10-23T12:16:33.348Z,79.6
2022-10-23T12:21:33.348Z,79.4
2022-10-23T12:26:33.357Z,78.8
2022-10-23T12:31:33.376Z,76.9
2022-10-23T12:36:33.339Z,76.2
2022-10-23T12:41:33.330Z,76.8
2022-10-23T12:46:33.334Z,75.3
2022-10-23T12:51:33.319Z,76.2
2022-10-23T12:56:35.077Z,76.5
2022-10-23T13:01:33.358Z,76.4
2022-10-23T13:06:33.283Z,76.3
2022-10-23T13:11:33.284Z,75.8
2022-10-23T13:16:33.273Z,75.5
2022-10-23T13:21:33.283Z,75.3
2022-10-23T13:26:33.265Z,74.8
2022-10-23T13:31:33.267Z,75.3
2022-10-23T13:36:33.271Z,75.5
2022-10-23T13:41:33.254Z,74.5
2022-10-23T13:46:33.239Z,75.5
2022-10-23T13:51:33.274Z,75.2
2022-10-23T13:56:33.233Z,75.7
2022-10-23T14:01:33.291Z,76.2
2022-10-23T14:06:33.213Z,76.4
2022-10-23T14:11:33.199Z,77.1
2022-10-23T14:16:33.233Z,76.6
2022-10-23T14:21:33.199Z,77.8
2022-10-23T14:26:33.204Z,78.4
2022-10-23T14:31:33.201Z,79.2
2022-10-23T14:36:38.255Z,78.9
2022-10-23T14:41:33.176Z,79.6
2022-10-23T14:46:33.160Z,80.5
2022-10-23T14:51:33.155Z,81.1
2022-10-23T14:56:33.160Z,81.8
2022-10-23T15:01:33.330Z,82.3
2022-10-23T15:06:33.142Z,83.1
2022-10-23T15:11:33.146Z,83.4
2022-10-23T15:16:33.157Z,84
2022-10-23T15:21:33.120Z,84.3
2022-10-23T15:26:33.110Z,85.2
2022-10-23T15:31:33.118Z,85.8
2022-10-23T15:36:33.095Z,86.5
2022-10-23T15:41:33.100Z,87.3
2022-10-23T15:46:33.089Z,87.9
2022-10-23T15:51:33.105Z,88.8
2022-10-23T15:56:33.068Z,89.7
2022-10-23T16:01:33.207Z,90.6
2022-10-23T16:06:33.079Z,91.5
2022-10-23T16:11:33.056Z,92.3
2022-10-23T16:16:33.050Z,92.9
2022-10-23T16:21:33.046Z,93.3
2022-10-23T16:26:33.048Z,94.1
2022-10-23T16:31:33.053Z,94.5
2022-10-23T16:36:33.028Z,95.6
2022-10-23T16:41:38.046Z,96.4
2022-10-23T16:46:33.021Z,96.4
2022-10-23T16:51:33.018Z,96.3
2022-10-23T16:56:33.000Z,97.3
2022-10-23T17:01:33.254Z,97.2
2022-10-23T17:06:33.016Z,97.2
2022-10-23T17:11:32.980Z,97.6
2022-10-23T17:16:32.989Z,97.8
2022-10-23T17:21:37.965Z,98
2022-10-23T17:26:32.977Z,98.1
2022-10-23T17:31:37.950Z,98.6
2022-10-23T17:36:32.961Z,99.2
2022-10-23T17:41:37.972Z,99.3
2022-10-23T17:46:32.952Z,99.2
2022-10-23T17:51:32.962Z,99.4
2022-10-23T17:56:32.933Z,99.4
2022-10-23T18:01:33.064Z,99.6
2022-10-23T18:06:32.946Z,100
2022-10-23T18:11:32.924Z,100
2022-10-23T18:16:32.918Z,100
2022-10-23T18:21:32.921Z,100
2022-10-23T18:26:32.905Z,100
2022-10-23T18:31:32.893Z,100
2022-10-23T18:36:37.905Z,100
2022-10-23T18:41:32.888Z,100
2022-10-23T18:46:37.877Z,100
2022-10-23T18:51:37.872Z,100
2022-10-23T18:56:32.878Z,100
2022-10-23T19:01:33.027Z,100
2022-10-23T19:06:37.858Z,100
2022-10-23T19:11:32.858Z,100
2022-10-23T19:16:37.847Z,100
2022-10-23T19:21:37.828Z,100
2022-10-23T19:26:32.853Z,100
2022-10-23T19:31:32.828Z,100
2022-10-23T19:36:32.830Z,100
2022-10-23T19:46:32.821Z,100
2022-10-23T19:51:32.807Z,100
2022-10-23T20:01:32.876Z,100
2022-10-23T20:06:32.797Z,100
2022-10-23T20:11:32.778Z,100
2022-10-23T20:16:32.774Z,100
2022-10-23T20:21:32.776Z,100
2022-10-23T20:26:32.778Z,100
2022-10-23T20:31:32.761Z,100
2022-10-23T20:41:32.769Z,100
2022-10-23T20:51:32.738Z,100
2022-10-23T21:01:32.869Z,100
2022-10-23T21:06:45.576Z,100
2022-10-23T21:11:32.728Z,100
2022-10-23T21:16:32.708Z,100
2022-10-23T21:21:32.705Z,100
2022-10-23T21:26:32.703Z,100
2022-10-23T21:31:32.707Z,100
2022-10-23T21:36:34.179Z,99
2022-10-23T21:41:32.689Z,99
2022-10-23T21:46:32.688Z,97.1
2022-10-23T21:51:32.687Z,87.5
2022-10-23T21:56:32.678Z,86.8
2022-10-23T22:11:58.730Z,88.7
2022-10-23T22:16:32.646Z,88.7
2022-10-23T22:21:32.647Z,88.1
2022-10-23T22:26:32.649Z,87.5
2022-10-23T22:31:32.648Z,86.8
2022-10-23T22:36:32.645Z,86.1
2022-10-23T22:41:32.619Z,85.9
2022-10-23T22:46:32.611Z,85.6
2022-10-23T22:51:32.602Z,84.5
2022-10-23T22:56:32.597Z,83.5
2022-10-23T23:01:32.662Z,82.9
2022-10-23T23:06:32.585Z,82.1
2022-10-23T23:11:36.976Z,81.2
2022-10-23T23:16:32.588Z,80.7
2022-10-23T23:21:32.579Z,80.8
2022-10-23T23:26:32.576Z,80.8
2022-10-23T23:31:32.570Z,81
2022-10-23T23:36:32.548Z,80.9
2022-10-23T23:41:32.573Z,81
2022-10-23T23:46:32.550Z,81.2
2022-10-23T23:51:32.555Z,80.9
2022-10-23T23:56:32.543Z,81.1
